Schedule Details


Flight Number: CTN418
Departure: Cilipi (LDDU) at 07:25
Arrival: Frankfurt/main (EDDF) at 09:30
Route: AMUGO UL611 UVODI UL862 SABAD DCT PIKIT DCT SUBEN UQ162 PSA

Weather Information
LDDU 170030Z 03011KT 310V080 CAVOK 14/05 Q1017
EDDF 170050Z 03003KT 010V070 9999 SCT049 07/05 Q1021 NOSIG
Schedule Frequency

Route Map